createdAt,value
2023-04-06T04:41:44.180Z,99861.09
2023-04-06T04:44:14.943Z,99857.66
2023-04-06T04:46:45.544Z,99855.59
2023-04-06T04:49:16.096Z,99856.75
2023-04-06T04:51:49.399Z,99863.88
2023-04-06T04:54:20.260Z,99866.41
2023-04-06T04:56:53.379Z,99864.31
2023-04-06T04:59:26.750Z,99855.84
2023-04-06T05:01:59.409Z,99811.22
2023-04-06T05:04:31.996Z,99848.84
2023-04-06T05:07:09.892Z,99852.72
2023-04-06T05:09:43.229Z,99846.50
2023-04-06T06:26:14.549Z,99812.56
2023-04-06T06:28:47.826Z,99804.16
2023-04-06T06:31:21.933Z,99806.22
2023-04-06T06:33:52.718Z,99797.41
2023-04-06T06:36:23.400Z,99806.03
2023-04-06T06:38:56.170Z,99806.19
2023-04-06T06:41:31.966Z,99804.94
2023-04-06T06:44:02.524Z,99806.63
2023-04-06T06:46:32.944Z,99806.72
2023-04-06T06:49:04.694Z,99811.66
2023-04-06T06:51:37.589Z,99807.78
2023-04-06T06:54:08.693Z,99805.91
2023-04-06T06:56:44.713Z,99805.78
2023-04-06T06:59:17.615Z,99803.59
2023-04-06T07:01:47.980Z,99807.38
2023-04-06T07:04:18.408Z,99805.72
2023-04-06T07:06:48.916Z,99803.81
2023-04-06T07:09:19.519Z,99805.19
2023-04-06T07:11:54.596Z,99811.25
2023-04-06T07:14:25.199Z,99802.03
2023-04-06T07:17:01.148Z,99805.59
2023-04-06T07:19:32.473Z,99807.66
2023-04-06T07:22:03.676Z,99807.94
2023-04-06T07:24:34.168Z,99806.81
2023-04-06T07:27:07.551Z,99809.13
2023-04-06T07:29:39.878Z,99799.00
2023-04-06T08:13:13.246Z,99795.91
2023-04-06T08:19:24.946Z,99797.03
2023-04-06T08:21:58.724Z,99796.09
2023-04-06T08:24:29.146Z,99802.75
2023-04-06T08:27:07.337Z,99810.19
2023-04-06T08:29:43.000Z,99796.38
2023-04-06T08:32:13.580Z,99802.47
2023-04-06T08:34:46.545Z,99808.78
2023-04-06T08:37:19.392Z,99803.53
2023-04-06T08:40:02.013Z,99799.97
2023-04-06T08:42:36.738Z,99811.16
2023-04-06T08:45:13.131Z,99801.53
2023-04-06T08:47:44.477Z,99808.53
2023-04-06T08:50:15.516Z,99809.75
2023-04-06T08:52:47.477Z,99808.63
2023-04-06T08:55:18.204Z,99813.88
2023-04-06T08:57:50.796Z,99820.22
2023-04-06T09:00:25.357Z,99808.25
2023-04-06T09:02:59.345Z,99819.38
2023-04-06T09:05:32.904Z,99821.25
2023-04-06T09:08:06.972Z,99822.66
2023-04-06T09:10:38.171Z,99826.09
2023-04-06T09:13:09.559Z,99829.09
2023-04-06T09:15:44.976Z,99824.41
2023-04-06T09:18:15.700Z,99824.53
2023-04-06T09:20:48.548Z,99818.06
2023-04-06T09:23:26.882Z,99821.16
2023-04-06T09:26:10.277Z,99817.97
2023-04-06T09:28:51.381Z,99817.22
2023-04-06T09:31:27.145Z,99812.78
2023-04-06T09:37:25.272Z,99812.38
2023-04-06T09:40:06.538Z,99812.19
2023-04-06T09:42:38.373Z,99806.72
2023-04-06T10:15:50.834Z,99803.03
2023-04-06T10:18:21.531Z,99791.81
2023-04-06T10:20:55.743Z,99788.75
2023-04-06T10:23:33.727Z,99795.84
2023-04-06T10:26:08.463Z,99797.88
2023-04-06T10:28:42.230Z,99791.16
2023-04-06T10:31:16.329Z,99791.25
2023-04-06T10:33:59.520Z,99776.69
2023-04-06T10:36:31.067Z,99775.44
2023-04-06T10:39:06.268Z,99776.44
2023-04-06T10:41:38.130Z,99774.19
2023-04-06T10:44:09.946Z,99768.13
2023-04-06T10:46:42.993Z,99766.91
2023-04-06T10:49:18.774Z,99777.09
2023-04-06T10:51:49.467Z,99772.13
2023-04-06T10:54:21.238Z,99766.38
2023-04-06T10:56:51.617Z,99764.38
2023-04-06T10:59:26.194Z,99762.97
2023-04-06T11:02:02.618Z,99756.94
2023-04-06T11:04:33.003Z,99762.78
2023-04-06T11:07:06.800Z,99758.59
2023-04-06T11:09:38.170Z,99766.97
2023-04-06T11:12:09.262Z,99764.47
2023-04-06T11:14:40.115Z,99759.97
2023-04-06T11:17:15.449Z,99763.50
2023-04-06T11:19:46.007Z,99761.78
2023-04-06T11:22:17.769Z,99754.13
2023-04-06T11:24:50.574Z,99750.09
2023-04-06T11:27:21.939Z,99763.53
2023-04-06T11:29:55.424Z,99747.47
2023-04-06T11:32:28.546Z,99751.59
2023-04-06T11:34:58.940Z,99757.06
2023-04-06T11:37:34.172Z,99752.22
2023-04-06T11:40:13.417Z,99750.75
2023-04-06T11:42:43.827Z,99755.88
2023-04-06T11:45:20.205Z,99754.59
2023-04-06T11:48:00.602Z,99749.75
2023-04-06T11:50:38.556Z,99754.56
2023-04-06T11:53:09.012Z,99752.06
2023-04-06T11:55:46.261Z,99750.19
2023-04-06T11:58:18.542Z,99747.38
2023-04-06T12:00:55.450Z,99741.13
2023-04-06T12:03:28.726Z,99742.63
2023-04-06T12:05:59.865Z,99738.44
2023-04-06T12:08:32.922Z,99734.81
2023-04-06T12:11:06.908Z,99736.09
2023-04-06T12:13:37.288Z,99733.75
2023-04-06T12:16:10.677Z,99730.31
2023-04-06T12:18:46.511Z,99730.47
2023-04-06T12:21:16.956Z,99721.47
2023-04-06T12:23:47.607Z,99729.19
2023-04-06T12:26:17.967Z,99727.91
2023-04-06T12:28:48.501Z,99728.00
2023-04-06T12:31:19.970Z,99727.16
2023-04-06T12:33:54.190Z,99717.31
2023-04-06T12:36:25.351Z,99712.94
2023-04-06T12:38:58.247Z,99722.03
2023-04-06T12:41:30.921Z,99716.59
2023-04-06T12:44:03.416Z,99717.22
2023-04-06T12:46:34.755Z,99709.78
2023-04-06T12:49:08.448Z,99721.63
2023-04-06T12:51:39.001Z,99713.13
2023-04-06T12:54:11.096Z,99713.31
2023-04-06T12:56:41.614Z,99708.09
2023-04-06T12:59:12.694Z,99704.09
2023-04-06T13:01:45.504Z,99709.94
2023-04-06T13:04:18.853Z,99712.22
2023-04-06T13:06:51.420Z,99705.66
2023-04-06T13:09:26.788Z,99715.38
2023-04-06T13:12:00.067Z,99723.31
2023-04-06T13:14:30.852Z,99713.72
2023-04-06T13:17:02.917Z,99717.69
2023-04-06T13:19:36.084Z,99711.00
2023-04-06T13:22:06.429Z,99715.13
2023-04-06T13:24:36.754Z,99703.63
2023-04-06T13:27:08.233Z,99708.09
2023-04-06T13:29:38.827Z,99708.50
2023-04-06T13:32:11.950Z,99708.19
2023-04-06T13:34:49.969Z,99708.72
2023-04-06T13:37:22.578Z,99710.44
2023-04-06T13:39:55.641Z,99708.94
2023-04-06T13:42:31.875Z,99704.63
2023-04-06T13:45:03.434Z,99693.94
2023-04-06T13:47:36.693Z,99707.66
2023-04-06T13:50:13.444Z,99702.72
2023-04-06T13:52:48.635Z,99700.47
2023-04-06T13:55:20.103Z,99697.91
2023-04-06T13:57:50.774Z,99690.53
2023-04-06T14:00:25.007Z,99704.91
2023-04-06T14:02:58.633Z,99703.09
2023-04-06T14:05:36.088Z,99699.97
2023-04-06T14:08:06.485Z,99702.19
2023-04-06T14:10:41.683Z,99707.00
2023-04-06T14:13:13.076Z,99705.75
2023-04-06T14:15:43.722Z,99700.81
2023-04-06T14:18:16.395Z,99701.63
2023-04-06T14:20:49.331Z,99707.16
2023-04-06T14:23:19.960Z,99702.16
2023-04-06T14:25:50.160Z,99701.22
2023-04-06T14:28:26.255Z,99703.03
2023-04-06T14:30:57.210Z,99706.25
2023-04-06T14:33:27.697Z,99699.66
2023-04-06T14:36:00.680Z,99704.41
2023-04-06T14:38:35.031Z,99707.81
2023-04-06T14:41:05.418Z,99704.81
2023-04-06T14:43:36.069Z,99700.69
2023-04-06T14:46:11.056Z,99702.75
2023-04-06T14:48:41.873Z,99695.44
2023-04-06T14:51:15.323Z,99689.69
2023-04-06T14:53:48.666Z,99693.34
2023-04-06T14:56:24.416Z,99689.06
2023-04-06T14:58:56.200Z,99695.28
2023-04-06T15:01:34.164Z,99699.41
2023-04-06T15:04:04.948Z,99691.06
2023-04-06T15:06:41.231Z,99685.63
2023-04-06T15:09:11.482Z,99688.84
2023-04-06T15:11:48.021Z,99696.88
2023-04-06T15:14:18.424Z,99689.69
2023-04-06T15:16:54.767Z,99696.88
2023-04-06T15:19:25.693Z,99703.91
2023-04-06T15:22:01.112Z,99697.59
2023-04-06T15:24:31.717Z,99701.25
2023-04-06T15:27:05.062Z,99695.59
2023-04-06T15:29:37.519Z,99697.19
2023-04-06T15:32:08.016Z,99684.91
2023-04-06T15:34:41.430Z,99701.69
2023-04-06T15:37:19.170Z,99695.59
2023-04-06T15:39:49.842Z,99688.88
2023-04-06T15:42:20.201Z,99696.16
2023-04-06T15:44:50.451Z,99695.88
2023-04-06T15:47:20.838Z,99689.72
2023-04-06T15:49:52.086Z,99692.44
2023-04-06T15:52:25.091Z,99696.53
2023-04-06T15:54:58.587Z,99704.28
2023-04-06T15:57:31.498Z,99690.56
2023-04-06T16:00:03.498Z,99696.97
2023-04-06T16:02:36.355Z,99700.22
2023-04-06T16:05:07.316Z,99696.13
2023-04-06T16:07:40.323Z,99700.84
2023-04-06T16:10:12.719Z,99714.19
2023-04-06T16:12:44.125Z,99700.38
2023-04-06T16:15:15.144Z,99703.63
2023-04-06T16:17:46.698Z,99712.97
2023-04-06T16:20:38.216Z,99702.53
2023-04-06T16:23:13.985Z,99697.88
2023-04-06T16:25:44.867Z,99707.59
2023-04-06T16:28:15.380Z,99708.34
2023-04-06T16:30:46.744Z,99707.28
2023-04-06T16:33:20.132Z,99709.47
2023-04-06T16:35:53.859Z,99715.72
2023-04-06T16:38:34.252Z,99712.63
2023-04-06T16:41:05.234Z,99719.53
2023-04-06T16:43:39.019Z,99717.59
2023-04-06T16:46:09.303Z,99709.47
2023-04-06T16:48:39.635Z,99712.63
2023-04-06T16:51:10.198Z,99719.34
2023-04-06T16:53:45.514Z,99715.50
2023-04-06T16:56:15.988Z,99717.38
2023-04-06T16:58:52.364Z,99714.88
2023-04-06T17:01:24.407Z,99704.97
2023-04-06T17:03:55.326Z,99715.41
2023-04-06T17:06:27.305Z,99718.22
2023-04-06T17:09:00.450Z,99714.00
2023-04-06T17:11:45.606Z,99715.28
2023-04-06T17:14:16.758Z,99712.88
2023-04-06T17:16:47.115Z,99709.69
2023-04-06T17:19:19.950Z,99709.03
2023-04-06T17:21:55.539Z,99708.44
2023-04-06T17:24:37.538Z,99712.00
2023-04-06T17:27:10.078Z,99705.44
2023-04-06T17:29:43.294Z,99700.22
2023-04-06T17:32:16.242Z,99697.06
2023-04-06T17:34:46.854Z,99675.53
2023-04-06T17:37:18.139Z,99692.53
2023-04-06T17:39:54.338Z,99691.69
2023-04-06T17:42:24.713Z,99700.53
2023-04-06T17:44:55.551Z,99683.16
2023-04-06T17:47:35.054Z,99688.88
2023-04-06T17:50:05.806Z,99691.28
2023-04-06T17:52:36.885Z,99700.88
2023-04-06T17:55:10.631Z,99708.72
2023-04-06T17:57:42.314Z,99706.38
2023-04-06T18:00:16.862Z,99702.00
2023-04-06T18:02:50.208Z,99700.63
2023-04-06T18:05:20.965Z,99695.31
2023-04-06T18:07:55.560Z,99695.31
2023-04-06T18:10:32.826Z,99690.84
2023-04-06T18:13:03.072Z,99690.00
2023-04-06T18:15:33.619Z,99694.31
2023-04-06T18:18:08.239Z,99692.69
2023-04-06T18:20:43.664Z,99695.28
2023-04-06T18:23:13.970Z,99698.56
2023-04-06T18:25:46.850Z,99699.31
2023-04-06T18:28:21.009Z,99700.06
2023-04-06T18:30:54.228Z,99668.19
2023-04-06T18:33:24.531Z,99703.78
2023-04-06T18:35:56.751Z,99717.28
2023-04-06T18:38:27.630Z,99707.69
2023-04-06T18:41:07.327Z,99710.81
2023-04-06T18:43:41.694Z,99719.22
2023-04-06T18:46:16.218Z,99718.38
2023-04-06T18:48:48.951Z,99722.59
2023-04-06T18:51:19.447Z,99725.19
2023-04-06T18:53:52.439Z,99726.78
2023-04-06T18:56:26.100Z,99724.75
2023-04-06T18:58:56.663Z,99726.31
2023-04-06T19:01:31.494Z,99696.06
2023-04-06T19:04:02.893Z,99717.84
2023-04-06T19:06:35.809Z,99732.38
2023-04-06T19:09:07.891Z,99723.16
2023-04-06T19:11:41.246Z,99717.19
2023-04-06T19:14:13.783Z,99715.09
2023-04-06T19:16:52.514Z,99705.09
2023-04-06T19:19:23.486Z,99704.34
2023-04-06T19:21:54.042Z,99703.78
2023-04-06T19:24:36.531Z,99702.09
2023-04-06T19:27:12.390Z,99697.13
2023-04-06T19:29:45.832Z,99692.06
2023-04-06T19:32:18.741Z,99680.13
2023-04-06T19:34:49.226Z,99683.66
2023-04-06T19:37:22.538Z,99679.28
2023-04-06T19:39:52.897Z,99680.97
2023-04-06T19:42:26.198Z,99680.63
2023-04-06T19:44:59.814Z,99671.97
2023-04-06T19:47:30.229Z,99674.47
2023-04-06T19:50:00.894Z,99677.09
2023-04-06T19:52:32.906Z,99675.31
2023-04-06T19:55:06.551Z,99674.41
2023-04-06T19:57:39.834Z,99681.56
2023-04-06T20:00:15.229Z,99680.72
2023-04-06T20:02:45.796Z,99681.66
2023-04-06T20:05:16.256Z,99682.56
2023-04-06T20:07:48.536Z,99681.97
2023-04-06T20:10:19.047Z,99685.25
2023-04-06T20:12:53.139Z,99682.41
2023-04-06T20:15:23.749Z,99688.03
2023-04-06T20:17:54.655Z,99689.34
2023-04-06T20:20:25.039Z,99685.88
2023-04-06T20:22:55.779Z,99685.88
2023-04-06T20:25:27.846Z,99686.72
2023-04-06T20:28:04.127Z,99685.22
2023-04-06T20:30:34.436Z,99689.50
2023-04-06T20:33:04.738Z,99690.25
2023-04-06T20:35:41.681Z,99689.59
2023-04-06T20:38:12.046Z,99675.97
2023-04-06T20:40:42.269Z,99697.34
2023-04-06T20:43:17.860Z,99689.50
2023-04-06T20:45:48.670Z,99689.75
2023-04-06T20:48:19.406Z,99690.44
2023-04-06T20:50:59.109Z,99687.91
2023-04-06T20:53:29.786Z,99692.03
2023-04-06T20:56:00.704Z,99686.13
2023-04-06T20:58:33.720Z,99688.66
2023-04-06T21:01:09.759Z,99692.44
2023-04-06T21:03:43.194Z,99677.81
2023-04-06T21:06:14.232Z,99681.19
2023-04-06T21:08:47.549Z,99673.53
2023-04-06T21:11:17.878Z,99679.66
2023-04-06T21:13:51.489Z,99674.94
2023-04-06T21:16:24.699Z,99671.59
2023-04-06T21:18:59.706Z,99676.81
2023-04-06T21:21:30.025Z,99676.03
2023-04-06T21:24:02.685Z,99669.66
2023-04-06T21:26:55.259Z,99662.75
2023-04-06T21:29:30.813Z,99666.78
2023-04-06T21:32:01.285Z,99666.69
2023-04-06T21:34:31.868Z,99658.97
2023-04-06T21:37:04.867Z,99663.81
2023-04-06T21:39:35.165Z,99662.13
2023-04-06T21:42:08.371Z,99670.53
2023-04-06T21:44:41.294Z,99661.13
2023-04-06T21:47:11.669Z,99655.81
2023-04-06T21:49:49.636Z,99655.56
2023-04-06T21:52:19.965Z,99658.16
2023-04-06T21:54:53.280Z,99656.22
2023-04-06T21:57:32.412Z,99657.66
2023-04-06T22:00:11.098Z,99651.28
2023-04-06T22:02:44.723Z,99647.22
2023-04-06T22:05:18.243Z,99644.41
2023-04-06T22:07:49.020Z,99640.03
2023-04-06T22:10:19.992Z,99637.31
2023-04-06T22:12:52.554Z,99646.91
2023-04-06T22:15:25.622Z,99642.38
2023-04-06T22:17:56.216Z,99634.19
2023-04-06T22:20:28.021Z,99626.34
2023-04-06T22:22:58.713Z,99624.66
2023-04-06T22:25:29.100Z,99626.25
2023-04-06T22:27:59.678Z,99639.28
2023-04-06T22:30:32.604Z,99626.03
2023-04-06T22:33:06.879Z,99624.19
2023-04-06T22:35:39.977Z,99619.16
2023-04-06T22:38:11.337Z,99617.47
2023-04-06T22:40:44.165Z,99620.63
2023-04-06T22:43:16.842Z,99617.28
2023-04-06T22:45:49.651Z,99617.28
2023-04-06T22:48:20.234Z,99618.78
2023-04-06T22:50:50.641Z,99618.69
2023-04-06T22:53:23.652Z,99613.38
2023-04-06T22:55:53.954Z,99621.13
2023-04-06T22:58:24.527Z,99620.13
2023-04-06T23:00:57.650Z,99627.78
2023-04-06T23:03:31.436Z,99621.72
2023-04-06T23:06:03.226Z,99621.63
2023-04-06T23:08:34.838Z,99613.03
2023-04-06T23:11:10.616Z,99611.63
2023-04-06T23:13:45.449Z,99613.97
2023-04-06T23:16:18.521Z,99598.38
2023-04-06T23:18:48.904Z,99607.16
2023-04-06T23:21:21.480Z,99605.66
2023-04-06T23:23:51.803Z,99608.06
2023-04-06T23:26:22.215Z,99606.03
2023-04-06T23:28:52.531Z,99606.97
2023-04-06T23:31:25.812Z,99609.59
2023-04-06T23:34:03.722Z,99599.31
2023-04-06T23:36:34.647Z,99606.31
2023-04-06T23:39:05.412Z,99606.50
2023-04-06T23:41:36.309Z,99610.69
2023-04-06T23:44:06.846Z,99603.78
2023-04-06T23:46:41.642Z,99607.91
2023-04-06T23:49:12.197Z,99603.44
2023-04-06T23:51:42.633Z,99605.81
2023-04-06T23:54:13.338Z,99601.53
2023-04-06T23:56:44.415Z,99600.44
2023-04-06T23:59:14.822Z,99592.59
